createdAt,value
2022-08-14T00:01:03.875Z,4.68
2022-08-14T00:03:37.244Z,4.35
2022-08-14T00:06:13.908Z,4.50
2022-08-14T00:08:50.932Z,4.30
2022-08-14T00:11:17.677Z,4.55
2022-08-14T00:13:46.518Z,4.22
2022-08-14T00:16:41.154Z,5.00
2022-08-14T00:19:19.311Z,4.90
2022-08-14T00:21:47.730Z,4.30
2022-08-14T00:24:22.913Z,4.82
2022-08-14T00:26:55.508Z,4.50
2022-08-14T00:29:21.890Z,4.32
2022-08-14T00:31:55.970Z,4.75
2022-08-14T00:34:36.706Z,4.85
2022-08-14T00:37:09.445Z,4.60
2022-08-14T00:39:35.876Z,4.90
2022-08-14T00:42:03.198Z,4.97
2022-08-14T00:44:32.218Z,4.47
2022-08-14T00:47:02.514Z,5.78
2022-08-14T00:49:30.215Z,5.30
2022-08-14T00:51:56.847Z,5.35
2022-08-14T00:54:24.506Z,4.93
2022-08-14T00:56:55.615Z,5.50
2022-08-14T00:59:26.163Z,5.30
2022-08-14T01:01:55.163Z,5.57
2022-08-14T01:04:51.930Z,5.20
2022-08-14T01:07:09.844Z,5.10
2022-08-14T01:09:37.540Z,5.03
2022-08-14T01:12:06.016Z,5.22
2022-08-14T01:14:34.793Z,5.43
2022-08-14T01:17:02.810Z,5.28
2022-08-14T01:19:49.317Z,5.10
2022-08-14T01:22:18.496Z,5.22
2022-08-14T01:24:46.229Z,4.95
2022-08-14T01:27:18.501Z,5.53
2022-08-14T01:30:03.742Z,5.32
2022-08-14T01:32:37.807Z,5.15
2022-08-14T01:35:18.700Z,5.47
2022-08-14T01:37:57.713Z,5.55
2022-08-14T01:40:33.233Z,5.65
2022-08-14T01:43:07.769Z,5.28
2022-08-14T01:45:40.583Z,5.32
2022-08-14T01:50:41.899Z,6.30
2022-08-14T01:53:09.411Z,5.63
2022-08-14T01:55:38.316Z,5.30
2022-08-14T01:58:20.288Z,5.80
2022-08-14T02:00:56.392Z,4.90
2022-08-14T02:03:24.061Z,5.72
2022-08-14T02:05:50.482Z,5.97
2022-08-14T02:08:22.552Z,5.60
2022-08-14T02:11:17.195Z,5.97
2022-08-14T02:13:47.366Z,5.97
2022-08-14T02:16:22.289Z,5.78
2022-08-14T02:18:49.506Z,5.28
2022-08-14T02:21:18.461Z,5.70
2022-08-14T02:23:47.679Z,5.65
2022-08-14T02:26:29.578Z,6.05
2022-08-14T02:29:03.369Z,6.15
2022-08-14T02:31:42.096Z,6.15
2022-08-14T02:34:22.530Z,6.13
2022-08-14T02:37:04.765Z,6.10
2022-08-14T02:39:39.068Z,5.85
2022-08-14T02:42:09.452Z,6.55
2022-08-14T02:47:14.951Z,6.22
2022-08-14T02:49:45.545Z,6.13
2022-08-14T02:52:26.695Z,6.18
2022-08-14T02:54:59.667Z,6.13
2022-08-14T02:57:40.088Z,6.38
2022-08-14T03:00:10.182Z,6.63
2022-08-14T03:02:55.908Z,6.50
2022-08-14T03:05:23.863Z,6.30
2022-08-14T03:07:51.838Z,6.68
2022-08-14T03:10:26.385Z,6.03
2022-08-14T03:12:54.666Z,6.28
2022-08-14T03:15:21.090Z,6.70
2022-08-14T03:17:56.957Z,6.45
2022-08-14T03:20:25.507Z,6.85
2022-08-14T03:22:52.481Z,6.30
2022-08-14T03:25:21.625Z,6.55
2022-08-14T03:27:59.120Z,7.15
2022-08-14T03:30:37.227Z,6.20
2022-08-14T03:33:13.010Z,6.55
2022-08-14T03:36:00.145Z,7.18
2022-08-14T03:39:11.905Z,7.05
2022-08-14T03:41:18.910Z,7.00
2022-08-14T03:43:47.376Z,6.40
2022-08-14T03:46:52.798Z,7.03
2022-08-14T03:49:24.499Z,7.45
2022-08-14T03:51:55.521Z,7.03
2022-08-14T03:54:24.367Z,8.20
2022-08-14T03:56:50.762Z,6.40
2022-08-14T03:59:19.350Z,7.43
2022-08-14T04:01:57.799Z,7.57
2022-08-14T04:04:27.611Z,6.60
2022-08-14T04:06:54.145Z,7.78
2022-08-14T04:09:26.748Z,7.70
2022-08-14T04:11:53.942Z,6.90
2022-08-14T04:14:20.463Z,7.57
2022-08-14T04:16:47.894Z,7.60
2022-08-14T04:19:19.774Z,7.43
2022-08-14T04:22:03.015Z,7.63
2022-08-14T04:24:37.690Z,7.72
2022-08-14T04:27:08.438Z,7.63
2022-08-14T04:29:41.237Z,8.30
2022-08-14T04:32:58.391Z,7.70
2022-08-14T04:34:56.790Z,7.63
2022-08-14T04:37:43.217Z,7.30
2022-08-14T04:40:31.152Z,7.13
2022-08-14T04:43:17.352Z,7.20
2022-08-14T04:45:44.500Z,7.97
2022-08-14T04:48:13.571Z,7.43
2022-08-14T04:51:00.315Z,8.20
2022-08-14T04:53:35.515Z,8.63
2022-08-14T04:56:10.434Z,7.50
2022-08-14T04:58:53.282Z,7.38
2022-08-14T05:01:20.134Z,8.05
2022-08-14T05:03:47.003Z,7.80
2022-08-14T05:06:38.352Z,7.90
2022-08-14T05:09:00.671Z,7.68
2022-08-14T05:11:27.504Z,8.13
2022-08-14T05:14:33.142Z,7.30
2022-08-14T05:16:42.499Z,7.22
2022-08-14T05:19:24.927Z,7.93
2022-08-14T05:22:15.530Z,7.63
2022-08-14T05:24:44.337Z,7.82
2022-08-14T05:27:10.726Z,8.35
2022-08-14T05:29:37.285Z,7.68
2022-08-14T05:32:07.387Z,8.40
2022-08-14T05:34:33.964Z,8.20
2022-08-14T05:37:03.004Z,8.40
2022-08-14T05:39:30.995Z,7.20
2022-08-14T05:41:57.740Z,7.85
2022-08-14T05:44:29.155Z,8.25
2022-08-14T05:46:56.576Z,7.55
2022-08-14T05:49:23.159Z,7.88
2022-08-14T05:51:52.536Z,7.88
2022-08-14T05:54:27.045Z,8.10
2022-08-14T05:56:54.222Z,7.90
2022-08-14T05:59:21.809Z,8.50
2022-08-14T06:02:03.534Z,8.38
2022-08-14T06:04:32.318Z,7.50
2022-08-14T06:06:58.669Z,7.45
2022-08-14T06:09:25.061Z,7.93
2022-08-14T06:11:52.106Z,8.45
2022-08-14T06:14:24.028Z,8.27
2022-08-14T06:16:52.914Z,7.80
2022-08-14T06:19:19.518Z,7.82
2022-08-14T06:21:46.179Z,8.32
2022-08-14T06:24:18.879Z,7.85
2022-08-14T06:26:51.961Z,8.13
2022-08-14T06:29:23.070Z,7.95
2022-08-14T06:31:54.856Z,7.53
2022-08-14T06:35:09.703Z,7.65
2022-08-14T06:37:13.094Z,8.13
2022-08-14T06:39:44.252Z,7.88
2022-08-14T06:42:32.568Z,7.00
2022-08-14T06:44:58.341Z,7.00
2022-08-14T06:47:24.882Z,7.63
2022-08-14T06:49:57.939Z,7.93
2022-08-14T06:52:24.650Z,7.85
2022-08-14T06:54:51.309Z,8.30
2022-08-14T06:57:18.355Z,8.02
2022-08-14T06:59:44.839Z,7.40
2022-08-14T07:02:29.559Z,7.78
2022-08-14T07:05:21.099Z,7.78
2022-08-14T07:07:49.149Z,7.38
2022-08-14T07:10:17.496Z,7.93
2022-08-14T07:13:01.970Z,7.15
2022-08-14T07:15:32.711Z,8.23
2022-08-14T07:18:01.061Z,7.50
2022-08-14T07:20:30.612Z,7.53
2022-08-14T07:23:06.721Z,7.15
2022-08-14T07:25:37.452Z,7.47
2022-08-14T07:28:20.164Z,7.93
2022-08-14T07:30:51.181Z,7.53
2022-08-14T07:33:20.724Z,7.20
2022-08-14T07:35:58.706Z,7.63
2022-08-14T07:38:33.712Z,7.95
2022-08-14T07:41:03.607Z,7.50
2022-08-14T07:43:39.010Z,6.93
2022-08-14T07:46:07.479Z,6.85
2022-08-14T07:48:39.787Z,7.20
2022-08-14T07:51:11.243Z,6.78
2022-08-14T07:53:40.655Z,7.32
2022-08-14T07:56:09.144Z,7.65
2022-08-14T07:58:54.755Z,7.00
2022-08-14T08:01:26.235Z,7.68
2022-08-14T08:03:59.625Z,7.72
2022-08-14T08:06:27.547Z,7.00
2022-08-14T08:09:00.923Z,7.15
2022-08-14T08:11:28.179Z,7.55
2022-08-14T08:14:06.101Z,7.65
2022-08-14T08:16:38.154Z,7.63
2022-08-14T08:19:10.118Z,6.88
2022-08-14T08:21:40.486Z,7.20
2022-08-14T08:24:10.486Z,8.48
2022-08-14T08:26:38.846Z,7.97
2022-08-14T08:29:06.778Z,7.25
2022-08-14T08:31:35.151Z,7.40
2022-08-14T08:34:06.300Z,8.15
2022-08-14T08:36:40.445Z,8.57
2022-08-14T08:39:17.145Z,8.30
2022-08-14T08:41:49.343Z,7.30
2022-08-14T08:44:31.772Z,7.53
2022-08-14T08:47:01.519Z,7.68
2022-08-14T08:49:43.288Z,7.35
2022-08-14T08:52:25.081Z,6.95
2022-08-14T08:54:57.283Z,8.07
2022-08-14T08:57:24.195Z,7.05
2022-08-14T08:59:54.827Z,7.45
2022-08-14T09:05:01.915Z,7.55
2022-08-14T09:07:28.290Z,6.72
2022-08-14T09:09:59.293Z,7.00
2022-08-14T09:12:31.785Z,6.47
2022-08-14T09:15:01.274Z,7.35
2022-08-14T09:17:28.101Z,6.53
2022-08-14T09:19:54.473Z,6.32
2022-08-14T09:22:35.681Z,6.63
2022-08-14T09:25:08.430Z,6.10
2022-08-14T09:27:37.391Z,6.65
2022-08-14T09:30:13.296Z,6.72
2022-08-14T09:33:03.857Z,6.70
2022-08-14T09:35:55.040Z,6.25
2022-08-14T09:38:36.342Z,6.53
2022-08-14T09:41:36.770Z,5.83
2022-08-14T09:44:32.601Z,5.80
2022-08-14T09:46:59.770Z,5.75
2022-08-14T09:49:40.620Z,6.55
2022-08-14T09:52:33.535Z,6.25
2022-08-14T09:54:59.411Z,5.82
2022-08-14T09:57:28.912Z,6.15
2022-08-14T09:59:55.780Z,6.18
2022-08-14T10:02:25.068Z,5.85
2022-08-14T10:05:09.923Z,6.25
2022-08-14T10:07:59.054Z,6.07
2022-08-14T10:10:38.114Z,6.30
2022-08-14T10:13:09.220Z,6.05
2022-08-14T10:15:45.893Z,5.22
2022-08-14T10:18:17.423Z,5.85
2022-08-14T10:20:57.952Z,5.38
2022-08-14T10:23:27.131Z,5.63
2022-08-14T10:26:06.086Z,5.97
2022-08-14T10:29:18.764Z,5.20
2022-08-14T10:31:44.947Z,5.68
2022-08-14T10:34:14.027Z,5.10
2022-08-14T10:36:45.702Z,5.35
2022-08-14T10:39:21.448Z,5.00
2022-08-14T10:41:54.095Z,5.07
2022-08-14T10:44:24.362Z,4.78
2022-08-14T10:47:40.340Z,4.93
2022-08-14T10:49:38.902Z,3.80
2022-08-14T10:52:10.680Z,3.90
2022-08-14T10:54:44.093Z,4.00
2022-08-14T10:59:49.755Z,4.82
2022-08-14T11:02:36.150Z,4.82
2022-08-14T11:05:19.085Z,5.00
2022-08-14T11:07:55.376Z,5.20
2022-08-14T11:10:25.482Z,5.03
2022-08-14T11:12:57.731Z,5.22
2022-08-14T11:15:28.086Z,4.78
2022-08-14T11:17:56.433Z,5.03
2022-08-14T11:20:30.826Z,5.43
2022-08-14T11:23:00.739Z,4.90
2022-08-14T11:25:43.966Z,4.85
2022-08-14T11:28:48.092Z,4.32
2022-08-14T11:31:13.873Z,4.43
2022-08-14T11:33:41.476Z,4.55
2022-08-14T11:36:17.838Z,5.03
2022-08-14T11:38:46.064Z,5.00
2022-08-14T11:41:14.185Z,4.65
2022-08-14T11:43:56.203Z,4.40
2022-08-14T11:46:30.642Z,4.78
2022-08-14T11:49:05.530Z,4.63
2022-08-14T11:51:50.732Z,4.35
2022-08-14T11:54:34.655Z,4.25
2022-08-14T11:57:01.728Z,3.90
2022-08-14T11:59:32.947Z,3.60
2022-08-14T12:03:02.610Z,3.30
2022-08-14T12:05:01.157Z,3.60
2022-08-14T12:07:30.752Z,3.63
2022-08-14T12:09:59.303Z,3.42
2022-08-14T12:12:34.970Z,3.00
2022-08-14T12:15:05.278Z,3.08
2022-08-14T12:17:47.605Z,3.40
2022-08-14T12:20:16.280Z,3.17
2022-08-14T12:22:57.266Z,2.92
2022-08-14T12:25:24.793Z,3.55
2022-08-14T12:27:54.634Z,3.00
2022-08-14T12:30:43.460Z,3.15
2022-08-14T12:35:56.238Z,3.20
2022-08-14T12:38:54.271Z,3.20
2022-08-14T12:41:27.853Z,3.00
2022-08-14T12:43:59.473Z,3.08
2022-08-14T12:46:29.234Z,3.40
2022-08-14T12:49:02.415Z,3.03
2022-08-14T12:51:30.561Z,3.92
2022-08-14T12:53:59.613Z,3.60
2022-08-14T12:56:34.014Z,3.90
2022-08-14T12:59:01.601Z,2.80
2022-08-14T13:01:31.143Z,2.75
2022-08-14T13:04:07.736Z,3.03
2022-08-14T13:06:38.059Z,2.97
2022-08-14T13:09:11.085Z,3.00
2022-08-14T13:11:44.828Z,2.42
2022-08-14T13:14:17.441Z,2.97
2022-08-14T13:16:45.226Z,3.33
2022-08-14T13:19:18.382Z,2.88
2022-08-14T13:21:58.550Z,3.00
2022-08-14T13:24:33.536Z,2.95
2022-08-14T13:27:04.068Z,2.92
2022-08-14T13:29:33.614Z,3.03
2022-08-14T13:32:00.824Z,3.22
2022-08-14T13:34:28.803Z,3.00
2022-08-14T13:37:03.797Z,3.22
2022-08-14T13:39:36.216Z,2.80
2022-08-14T13:42:08.067Z,3.03
2022-08-14T13:44:35.178Z,3.03
2022-08-14T13:47:06.504Z,3.00
2022-08-14T13:49:37.408Z,3.13
2022-08-14T13:52:48.280Z,3.58
2022-08-14T13:54:55.652Z,3.30
2022-08-14T13:57:30.418Z,3.38
2022-08-14T14:00:01.282Z,3.60
2022-08-14T14:02:33.703Z,3.83
2022-08-14T14:05:01.184Z,3.50
2022-08-14T14:07:32.126Z,3.30
2022-08-14T14:10:01.582Z,3.63
2022-08-14T14:12:41.239Z,3.28
2022-08-14T14:15:11.110Z,3.42
2022-08-14T14:17:38.855Z,3.83
2022-08-14T14:20:08.045Z,3.70
2022-08-14T14:23:01.939Z,4.38
2022-08-14T14:25:25.924Z,4.93
2022-08-14T14:28:16.685Z,4.70
2022-08-14T14:30:54.136Z,5.13
2022-08-14T14:33:46.865Z,4.90
2022-08-14T14:36:13.943Z,4.68
2022-08-14T14:38:42.079Z,4.32
2022-08-14T14:41:09.582Z,4.60
2022-08-14T14:43:44.716Z,4.22
2022-08-14T14:46:13.235Z,4.72
2022-08-14T14:48:44.209Z,4.85
2022-08-14T14:51:14.708Z,4.50
2022-08-14T14:53:43.349Z,4.32
2022-08-14T14:56:47.737Z,4.50
2022-08-14T14:58:57.504Z,3.80
2022-08-14T15:01:25.254Z,3.70
2022-08-14T15:03:54.991Z,3.70
2022-08-14T15:06:28.970Z,4.15
2022-08-14T15:08:58.244Z,4.05
2022-08-14T15:11:26.677Z,3.85
2022-08-14T15:13:57.143Z,4.53
2022-08-14T15:16:24.862Z,4.03
2022-08-14T15:18:51.384Z,4.68
2022-08-14T15:21:19.423Z,3.97
2022-08-14T15:23:47.936Z,5.03
2022-08-14T15:26:31.042Z,4.43
2022-08-14T15:29:05.796Z,4.50
2022-08-14T15:31:34.892Z,5.05
2022-08-14T15:34:44.655Z,4.10
2022-08-14T15:37:00.185Z,4.85
2022-08-14T15:39:29.603Z,4.00
2022-08-14T15:42:01.819Z,5.10
2022-08-14T15:44:34.028Z,4.20
2022-08-14T15:47:01.542Z,5.25
2022-08-14T15:49:34.643Z,5.20
2022-08-14T15:52:03.071Z,5.13
2022-08-14T15:54:31.666Z,5.20
2022-08-14T15:57:08.269Z,4.38
2022-08-14T15:59:54.123Z,4.82
2022-08-14T16:02:24.623Z,4.82
2022-08-14T16:04:54.459Z,4.43
2022-08-14T16:07:22.329Z,4.75
2022-08-14T16:10:11.853Z,4.55
2022-08-14T16:12:41.566Z,4.35
2022-08-14T16:15:12.846Z,4.55
2022-08-14T16:17:44.051Z,4.57
2022-08-14T16:20:11.567Z,4.63
2022-08-14T16:22:57.170Z,4.97
2022-08-14T16:25:34.793Z,5.13
2022-08-14T16:28:03.437Z,5.70
2022-08-14T16:30:34.221Z,5.20
2022-08-14T16:33:04.658Z,5.03
2022-08-14T16:35:42.404Z,4.93
2022-08-14T16:38:46.174Z,5.53
2022-08-14T16:41:23.030Z,5.20
2022-08-14T16:43:53.023Z,4.35
2022-08-14T16:46:22.001Z,5.07
2022-08-14T16:48:56.925Z,5.20
2022-08-14T16:51:25.475Z,5.63
2022-08-14T16:53:54.552Z,5.75
2022-08-14T16:56:24.161Z,5.22
2022-08-14T16:59:12.088Z,4.83
2022-08-14T17:01:44.403Z,5.20
2022-08-14T17:04:14.958Z,4.65
2022-08-14T17:06:53.794Z,4.80
2022-08-14T17:09:28.504Z,4.70
2022-08-14T17:12:33.962Z,4.65
2022-08-14T17:15:03.677Z,5.13
2022-08-14T17:17:39.405Z,5.20
2022-08-14T17:20:42.124Z,4.82
2022-08-14T17:23:01.156Z,5.10
2022-08-14T17:25:36.522Z,5.22
2022-08-14T17:28:50.151Z,4.30
2022-08-14T17:31:07.273Z,4.65
2022-08-14T17:33:40.283Z,4.57
2022-08-14T17:36:21.180Z,4.90
2022-08-14T17:39:00.143Z,5.35
2022-08-14T17:41:36.117Z,4.85
2022-08-14T17:44:34.002Z,5.15
2022-08-14T17:47:13.332Z,4.85
2022-08-14T17:49:46.690Z,5.55
2022-08-14T17:52:17.550Z,4.97
2022-08-14T17:54:52.703Z,4.90
2022-08-14T17:57:28.372Z,5.40
2022-08-14T17:59:56.305Z,5.20
2022-08-14T18:02:30.926Z,4.57
2022-08-14T18:05:00.031Z,4.35
2022-08-14T18:08:31.495Z,7.10
2022-08-14T18:10:52.306Z,5.43
2022-08-14T18:13:03.646Z,5.28
2022-08-14T18:15:35.431Z,4.57
2022-08-14T18:18:06.591Z,104.07
2022-08-14T18:21:41.649Z,188.50
2022-08-14T18:23:24.879Z,219.02
2022-08-14T18:25:52.869Z,63.83
2022-08-14T18:28:51.700Z,18.33
2022-08-14T18:31:22.976Z,13.80
2022-08-14T18:33:54.486Z,12.18
2022-08-14T18:36:55.460Z,20.63
2022-08-14T18:39:34.524Z,14.35
2022-08-14T18:42:23.689Z,16.77
2022-08-14T18:44:50.632Z,22.08
2022-08-14T18:47:17.399Z,79.05
2022-08-14T18:49:52.735Z,12.20
2022-08-14T18:52:29.632Z,6.22
2022-08-14T18:54:59.112Z,5.72
2022-08-14T18:57:27.148Z,5.60
2022-08-14T19:00:43.229Z,5.15
2022-08-14T19:03:17.729Z,5.40
2022-08-14T19:05:48.891Z,5.35
2022-08-14T19:08:27.024Z,4.72
2022-08-14T19:10:59.652Z,5.35
2022-08-14T19:13:44.547Z,5.50
2022-08-14T19:16:16.997Z,6.15
2022-08-14T19:18:53.255Z,5.30
2022-08-14T19:21:23.586Z,5.35
2022-08-14T19:24:32.389Z,6.05
2022-08-14T19:27:23.755Z,6.10
2022-08-14T19:29:51.795Z,5.47
2022-08-14T19:32:36.815Z,4.97
2022-08-14T19:35:17.038Z,5.60
2022-08-14T19:37:52.288Z,4.88
2022-08-14T19:40:34.402Z,5.20
2022-08-14T19:43:02.007Z,5.78
2022-08-14T19:45:30.178Z,5.43
2022-08-14T19:48:00.578Z,5.13
2022-08-14T19:50:40.297Z,5.20
2022-08-14T19:53:12.037Z,5.45
2022-08-14T19:55:47.161Z,5.47
2022-08-14T19:58:14.991Z,5.75
2022-08-14T20:00:52.021Z,4.88
2022-08-14T20:03:24.092Z,5.72
2022-08-14T20:06:00.466Z,6.05
2022-08-14T20:10:59.378Z,5.03
2022-08-14T20:12:00.432Z,5.72
2022-08-14T20:14:23.645Z,5.87
2022-08-14T20:17:03.274Z,6.40
2022-08-14T20:19:37.995Z,5.85
2022-08-14T20:22:37.443Z,5.35
2022-08-14T20:24:56.568Z,4.57
2022-08-14T20:27:33.470Z,5.15
2022-08-14T20:30:29.910Z,5.05
2022-08-14T20:33:10.982Z,4.75
2022-08-14T20:35:44.196Z,5.03
2022-08-14T20:38:30.392Z,5.43
2022-08-14T20:41:00.731Z,4.47
2022-08-14T20:43:53.089Z,4.78
2022-08-14T20:46:29.456Z,4.97
2022-08-14T20:48:56.591Z,4.80
2022-08-14T20:51:36.632Z,4.47
2022-08-14T20:54:08.932Z,4.90
2022-08-14T20:56:43.046Z,5.10
2022-08-14T20:59:21.620Z,5.20
2022-08-14T21:01:51.885Z,5.20
2022-08-14T21:04:23.599Z,4.55
2022-08-14T21:07:25.799Z,4.47
2022-08-14T21:10:06.385Z,4.53
2022-08-14T21:12:34.378Z,4.78
2022-08-14T21:15:03.350Z,4.65
2022-08-14T21:17:32.344Z,3.97
2022-08-14T21:20:26.345Z,4.32
2022-08-14T21:22:53.102Z,4.55
2022-08-14T21:25:22.978Z,4.38
2022-08-14T21:27:57.294Z,4.72
2022-08-14T21:30:46.828Z,4.57
2022-08-14T21:33:15.708Z,4.65
2022-08-14T21:35:45.494Z,4.13
2022-08-14T21:38:16.874Z,4.60
2022-08-14T21:40:50.137Z,4.30
2022-08-14T21:43:19.583Z,4.90
2022-08-14T21:45:57.609Z,4.45
2022-08-14T21:48:29.972Z,4.50
2022-08-14T21:51:01.702Z,4.25
2022-08-14T21:53:59.380Z,4.22
2022-08-14T21:56:37.327Z,4.63
2022-08-14T21:59:09.011Z,4.63
2022-08-14T22:01:59.500Z,4.85
2022-08-14T22:04:33.817Z,4.68
2022-08-14T22:07:10.200Z,4.65
2022-08-14T22:09:37.166Z,4.78
2022-08-14T22:12:06.559Z,4.97
2022-08-14T22:14:43.347Z,4.63
2022-08-14T22:17:17.073Z,4.70
2022-08-14T22:19:54.491Z,5.10
2022-08-14T22:22:25.880Z,4.60
2022-08-14T22:24:53.201Z,4.95
2022-08-14T22:27:21.205Z,4.50
2022-08-14T22:29:54.730Z,4.55
2022-08-14T22:32:35.325Z,4.07
2022-08-14T22:35:11.941Z,4.93
2022-08-14T22:37:39.555Z,4.63
2022-08-14T22:40:50.671Z,4.75
2022-08-14T22:43:01.101Z,4.57
2022-08-14T22:45:36.565Z,4.82
2022-08-14T22:48:10.926Z,4.40
2022-08-14T22:50:48.754Z,4.15
2022-08-14T22:53:15.634Z,5.03
2022-08-14T22:55:43.203Z,4.80
2022-08-14T22:58:11.058Z,4.47
2022-08-14T23:00:44.897Z,5.18
2022-08-14T23:03:17.558Z,4.47
2022-08-14T23:05:52.550Z,4.57
2022-08-14T23:08:59.940Z,4.40
2022-08-14T23:11:06.967Z,4.68
2022-08-14T23:13:33.540Z,4.30
2022-08-14T23:16:00.196Z,4.43
2022-08-14T23:18:29.708Z,4.90
2022-08-14T23:20:56.554Z,4.28
2022-08-14T23:23:23.431Z,4.63
2022-08-14T23:25:59.943Z,4.20
2022-08-14T23:28:56.641Z,4.45
2022-08-14T23:31:34.630Z,4.43
2022-08-14T23:34:07.862Z,4.97
2022-08-14T23:36:38.058Z,4.60
2022-08-14T23:39:20.993Z,5.07
2022-08-14T23:41:52.716Z,4.90
2022-08-14T23:44:22.235Z,4.50
2022-08-14T23:46:49.400Z,4.50
2022-08-14T23:49:20.242Z,4.68
2022-08-14T23:52:49.564Z,4.15
2022-08-14T23:54:49.321Z,4.53
2022-08-14T23:57:19.213Z,4.57
2022-08-14T23:59:54.632Z,4.90
